createdAt,value
2018-12-08T00:02:26.313Z,12.63
2018-12-08T00:04:54.323Z,13.37
2018-12-08T00:07:21.868Z,12.80
2018-12-08T00:09:49.403Z,12.03
2018-12-08T00:12:17.126Z,13.50
2018-12-08T00:14:45.262Z,11.23
2018-12-08T00:17:12.998Z,12.30
2018-12-08T00:19:40.901Z,11.70
2018-12-08T00:22:08.543Z,14.13
2018-12-08T00:24:36.439Z,13.80
2018-12-08T00:27:04.091Z,12.37
2018-12-08T00:29:31.779Z,13.13
2018-12-08T00:31:59.694Z,13.30
2018-12-08T00:34:27.271Z,12.97
2018-12-08T00:36:54.828Z,13.77
2018-12-08T00:39:22.366Z,13.93
2018-12-08T00:41:49.937Z,14.37
2018-12-08T00:44:17.906Z,15.03
2018-12-08T00:46:45.854Z,15.07
2018-12-08T00:49:13.434Z,14.83
2018-12-08T00:51:40.962Z,16.00
2018-12-08T00:54:08.680Z,17.70
2018-12-08T00:56:36.629Z,18.10
2018-12-08T00:59:04.592Z,14.37
2018-12-08T01:01:32.127Z,16.83
2018-12-08T01:04:00.166Z,15.90
2018-12-08T01:06:27.697Z,15.23
2018-12-08T01:08:55.848Z,17.43
2018-12-08T01:11:23.563Z,15.60
2018-12-08T01:13:51.281Z,17.30
2018-12-08T01:16:19.243Z,16.37
2018-12-08T01:18:46.954Z,16.03
2018-12-08T01:21:14.560Z,18.83
2018-12-08T01:23:42.098Z,15.47
2018-12-08T01:26:09.671Z,16.97
2018-12-08T01:28:37.573Z,19.07
2018-12-08T01:31:05.369Z,18.93
2018-12-08T01:33:34.141Z,16.80
2018-12-08T01:36:01.963Z,18.03
2018-12-08T01:38:29.506Z,16.90
2018-12-08T01:40:57.298Z,18.17
2018-12-08T01:43:25.368Z,17.53
2018-12-08T01:45:53.077Z,19.27
2018-12-08T01:48:21.134Z,21.73
2018-12-08T01:50:48.974Z,24.40
2018-12-08T01:53:16.519Z,20.40
2018-12-08T01:55:44.090Z,15.73
2018-12-08T01:58:11.617Z,15.93
2018-12-08T02:00:39.146Z,15.13
2018-12-08T02:03:06.718Z,14.93
2018-12-08T02:05:34.684Z,15.13
2018-12-08T02:08:02.222Z,15.63
2018-12-08T02:10:30.094Z,15.13
2018-12-08T02:12:57.919Z,18.90
2018-12-08T02:15:25.494Z,15.27
2018-12-08T02:17:53.263Z,14.63
2018-12-08T02:20:20.901Z,13.87
2018-12-08T02:22:48.439Z,13.73
2018-12-08T02:25:16.266Z,14.63
2018-12-08T02:27:43.795Z,15.10
2018-12-08T02:30:11.326Z,13.83
2018-12-08T02:32:39.435Z,14.33
2018-12-08T02:35:07.494Z,15.93
2018-12-08T02:37:35.144Z,17.13
2018-12-08T02:40:02.876Z,14.87
2018-12-08T02:42:30.654Z,14.97
2018-12-08T02:44:58.238Z,16.77
2018-12-08T02:47:26.052Z,14.90
2018-12-08T02:49:53.826Z,14.37
2018-12-08T02:52:21.392Z,15.87
2018-12-08T02:54:49.166Z,11.40
2018-12-08T02:57:16.698Z,14.37
2018-12-08T02:59:44.869Z,15.10
2018-12-08T03:02:12.547Z,15.50
2018-12-08T03:04:40.669Z,15.03
2018-12-08T03:07:08.197Z,14.53
2018-12-08T03:09:36.144Z,12.33
2018-12-08T03:12:03.954Z,13.40
2018-12-08T03:14:31.559Z,12.90
2018-12-08T03:16:59.232Z,12.63
2018-12-08T03:19:26.966Z,12.43
2018-12-08T03:21:54.601Z,11.77
2018-12-08T03:24:22.197Z,19.10
2018-12-08T03:26:49.846Z,15.00
2018-12-08T03:29:17.507Z,14.53
2018-12-08T03:31:45.092Z,14.23
2018-12-08T03:34:12.635Z,14.03
2018-12-08T03:36:40.191Z,17.73
2018-12-08T03:39:08.140Z,14.20
2018-12-08T03:41:35.986Z,17.07
2018-12-08T03:44:03.707Z,17.20
2018-12-08T03:46:31.296Z,17.93
2018-12-08T03:48:58.831Z,16.53
2018-12-08T03:51:26.584Z,16.90
2018-12-08T03:53:54.424Z,22.90
2018-12-08T03:56:21.954Z,26.67
2018-12-08T03:58:49.584Z,12.53
2018-12-08T04:01:17.536Z,14.17
2018-12-08T04:03:45.079Z,13.47
2018-12-08T04:06:12.646Z,14.00
2018-12-08T04:08:40.481Z,12.53
2018-12-08T04:11:08.013Z,10.53
2018-12-08T04:13:35.550Z,11.30
2018-12-08T04:16:03.124Z,12.00
2018-12-08T04:18:30.687Z,11.87
2018-12-08T04:20:58.382Z,12.37
2018-12-08T04:23:25.946Z,12.87
2018-12-08T04:25:53.490Z,12.27
2018-12-08T04:28:21.163Z,10.97
2018-12-08T04:30:49.168Z,12.03
2018-12-08T04:33:16.703Z,11.63
2018-12-08T04:35:44.375Z,10.20
2018-12-08T04:38:12.399Z,10.53
2018-12-08T04:40:39.942Z,11.17
2018-12-08T04:43:07.815Z,11.63
2018-12-08T04:45:35.715Z,12.70
2018-12-08T04:48:03.472Z,11.60
2018-12-08T04:50:31.127Z,11.60
2018-12-08T04:52:58.939Z,11.47
2018-12-08T04:55:26.474Z,11.67
2018-12-08T04:57:54.302Z,11.97
2018-12-08T05:00:22.334Z,11.73
2018-12-08T05:02:49.863Z,9.70
2018-12-08T05:05:17.927Z,10.80
2018-12-08T05:07:45.885Z,10.87
2018-12-08T05:10:13.663Z,10.80
2018-12-08T05:12:41.202Z,10.43
2018-12-08T05:15:09.066Z,12.50
2018-12-08T05:17:37.067Z,12.13
2018-12-08T05:20:04.702Z,11.93
2018-12-08T05:22:33.673Z,10.83
2018-12-08T05:25:01.554Z,11.43
2018-12-08T05:27:29.114Z,11.77
2018-12-08T05:29:56.962Z,11.47
2018-12-08T05:32:24.839Z,12.77
2018-12-08T05:34:52.375Z,14.10
2018-12-08T05:37:20.015Z,11.97
2018-12-08T05:39:47.557Z,11.20
2018-12-08T05:42:15.132Z,8.73
2018-12-08T05:44:42.703Z,8.40
2018-12-08T05:47:10.250Z,7.47
2018-12-08T05:49:38.214Z,8.20
2018-12-08T05:52:06.291Z,7.87
2018-12-08T05:54:33.926Z,7.07
2018-12-08T05:57:01.725Z,7.07
2018-12-08T05:59:29.301Z,15.67
2018-12-08T06:01:56.836Z,10.33
2018-12-08T06:04:24.740Z,8.63
2018-12-08T06:06:52.585Z,9.10
2018-12-08T06:09:20.191Z,8.60
2018-12-08T06:11:47.715Z,8.20
2018-12-08T06:14:15.635Z,6.97
2018-12-08T06:16:43.481Z,7.07
2018-12-08T06:19:11.142Z,7.03
2018-12-08T06:21:38.706Z,6.33
2018-12-08T06:24:06.463Z,7.53
2018-12-08T06:26:37.302Z,6.50
2018-12-08T06:29:04.915Z,6.87
2018-12-08T06:31:32.964Z,5.90
2018-12-08T06:34:00.592Z,6.30
2018-12-08T06:36:28.302Z,5.90
2018-12-08T06:38:56.044Z,6.50
2018-12-08T06:41:23.865Z,6.67
2018-12-08T06:43:51.641Z,11.77
2018-12-08T06:46:19.422Z,8.67
2018-12-08T06:48:47.242Z,9.07
2018-12-08T06:51:15.054Z,8.07
2018-12-08T06:53:42.753Z,8.00
2018-12-08T06:56:10.557Z,7.57
2018-12-08T06:58:38.123Z,6.37
2018-12-08T07:01:05.853Z,7.40
2018-12-08T07:03:33.383Z,7.17
2018-12-08T07:06:01.298Z,8.40
2018-12-08T07:08:28.833Z,10.87
2018-12-08T07:10:56.560Z,11.63
2018-12-08T07:13:24.140Z,10.10
2018-12-08T07:15:51.817Z,10.57
2018-12-08T07:18:19.384Z,41.20
2018-12-08T07:20:47.372Z,14.40
2018-12-08T07:23:15.107Z,23.83
2018-12-08T07:25:42.640Z,27.17
2018-12-08T07:28:10.430Z,17.63
2018-12-08T07:30:37.981Z,15.97
2018-12-08T07:33:05.529Z,23.47
2018-12-08T07:35:33.254Z,24.30
2018-12-08T07:38:00.998Z,10.87
2018-12-08T07:40:28.769Z,10.50
2018-12-08T07:42:56.989Z,13.83
2018-12-08T07:45:25.911Z,12.37
2018-12-08T07:47:53.598Z,8.80
2018-12-08T07:50:22.446Z,7.90
2018-12-08T07:52:51.843Z,7.13
2018-12-08T07:55:20.166Z,5.90
2018-12-08T07:57:48.723Z,5.70
2018-12-08T08:00:16.725Z,5.67
2018-12-08T08:02:44.585Z,5.60
2018-12-08T08:05:12.425Z,34.23
2018-12-08T08:07:40.505Z,10.90
2018-12-08T08:10:08.363Z,9.03
2018-12-08T08:12:36.071Z,6.00
2018-12-08T08:15:03.614Z,8.73
2018-12-08T08:17:31.374Z,7.60
2018-12-08T08:19:58.953Z,7.57
2018-12-08T08:22:26.490Z,9.30
2018-12-08T08:24:54.361Z,8.10
2018-12-08T08:27:22.007Z,11.10
2018-12-08T08:29:49.746Z,9.60
2018-12-08T08:32:17.301Z,10.07
2018-12-08T08:34:45.218Z,8.77
2018-12-08T08:37:12.850Z,8.47
2018-12-08T08:39:40.387Z,9.57
2018-12-08T08:42:07.978Z,9.70
2018-12-08T08:44:35.536Z,12.93
2018-12-08T08:47:03.076Z,18.17
2018-12-08T08:49:30.750Z,12.80
2018-12-08T08:51:58.398Z,10.37
2018-12-08T08:54:25.981Z,10.43
2018-12-08T08:56:53.570Z,10.80
2018-12-08T08:59:21.391Z,14.20
2018-12-08T09:01:48.990Z,12.77
2018-12-08T09:04:16.608Z,15.23
2018-12-08T09:06:44.170Z,13.97
2018-12-08T09:09:12.138Z,11.80
2018-12-08T09:11:39.731Z,11.83
2018-12-08T09:14:13.160Z,12.97
2018-12-08T09:16:37.055Z,19.07
2018-12-08T09:19:05.129Z,69.47
2018-12-08T09:21:33.242Z,28.33
2018-12-08T09:24:00.792Z,18.80
2018-12-08T09:26:28.425Z,19.17
2018-12-08T09:28:56.214Z,19.07
2018-12-08T09:31:23.851Z,16.97
2018-12-08T09:33:52.972Z,12.00
2018-12-08T09:36:20.981Z,11.03
2018-12-08T09:38:48.734Z,12.00
2018-12-08T09:41:16.439Z,12.83
2018-12-08T09:43:44.472Z,13.43
2018-12-08T09:46:13.018Z,24.10
2018-12-08T09:48:40.607Z,18.87
2018-12-08T09:51:08.155Z,23.07
2018-12-08T09:53:35.961Z,22.23
2018-12-08T09:56:03.535Z,35.00
2018-12-08T09:58:31.384Z,25.03
2018-12-08T10:00:59.056Z,18.13
2018-12-08T10:03:26.677Z,17.20
2018-12-08T10:05:55.391Z,17.37
2018-12-08T10:08:23.268Z,15.87
2018-12-08T10:10:51.034Z,15.20
2018-12-08T10:13:18.791Z,18.80
2018-12-08T10:15:46.578Z,17.93
2018-12-08T10:18:14.734Z,14.37
2018-12-08T10:20:42.639Z,19.50
2018-12-08T10:23:10.433Z,16.13
2018-12-08T10:25:38.145Z,12.80
2018-12-08T10:28:05.958Z,16.97
2018-12-08T10:30:33.554Z,13.93
2018-12-08T10:33:01.159Z,15.97
2018-12-08T10:35:28.709Z,14.57
2018-12-08T10:37:56.415Z,12.30
2018-12-08T10:40:24.316Z,17.30
2018-12-08T10:42:51.864Z,14.87
2018-12-08T10:45:19.748Z,12.10
2018-12-08T10:47:47.357Z,16.47
2018-12-08T10:50:14.913Z,12.70
2018-12-08T10:52:42.465Z,13.90
2018-12-08T10:55:10.259Z,17.73
2018-12-08T10:57:37.983Z,12.23
2018-12-08T11:00:08.265Z,8.30
2018-12-08T11:02:37.855Z,13.70
2018-12-08T11:05:05.831Z,14.10
2018-12-08T11:07:33.430Z,17.43
2018-12-08T11:10:01.022Z,22.60
2018-12-08T11:12:28.807Z,17.33
2018-12-08T11:15:00.622Z,22.80
2018-12-08T11:17:26.238Z,12.37
2018-12-08T11:19:53.858Z,21.53
2018-12-08T11:22:21.498Z,25.00
2018-12-08T11:24:49.367Z,10.70
2018-12-08T11:27:17.025Z,11.07
2018-12-08T11:29:45.687Z,12.27
2018-12-08T11:32:13.759Z,10.53
2018-12-08T11:34:41.850Z,8.93
2018-12-08T11:37:09.698Z,6.87
2018-12-08T11:39:37.270Z,7.63
2018-12-08T11:42:04.822Z,13.00
2018-12-08T11:44:32.614Z,18.93
2018-12-08T11:47:00.646Z,6.27
2018-12-08T11:49:28.299Z,16.60
2018-12-08T11:51:56.009Z,12.47
2018-12-08T11:54:24.026Z,7.63
2018-12-08T11:56:51.595Z,6.87
2018-12-08T11:59:19.485Z,6.70
2018-12-08T12:01:48.274Z,8.63
2018-12-08T12:04:15.817Z,11.40
2018-12-08T12:06:43.362Z,19.60
2018-12-08T12:09:10.946Z,8.33
2018-12-08T12:11:38.486Z,7.53
2018-12-08T12:14:06.267Z,12.47
2018-12-08T12:16:33.852Z,8.00
2018-12-08T12:19:01.393Z,8.90
2018-12-08T12:21:29.228Z,10.70
2018-12-08T12:23:56.812Z,10.53
2018-12-08T12:26:24.350Z,6.40
2018-12-08T12:28:51.911Z,7.00
2018-12-08T12:31:19.495Z,6.77
2018-12-08T12:33:47.141Z,7.63
2018-12-08T12:36:14.684Z,9.10
2018-12-08T12:38:42.325Z,9.63
2018-12-08T12:41:10.993Z,9.40
2018-12-08T12:43:39.100Z,11.63
2018-12-08T12:46:06.885Z,9.67
2018-12-08T12:48:34.511Z,10.93
2018-12-08T12:51:02.068Z,10.57
2018-12-08T12:53:29.843Z,11.93
2018-12-08T12:55:57.600Z,10.13
2018-12-08T12:58:25.135Z,10.13
2018-12-08T13:00:52.703Z,16.23
2018-12-08T13:03:20.480Z,25.40
2018-12-08T13:05:48.374Z,7.50
2018-12-08T13:08:16.207Z,12.87
2018-12-08T13:10:44.082Z,9.57
2018-12-08T13:13:11.627Z,16.60
2018-12-08T13:15:39.358Z,8.17
2018-12-08T13:18:06.933Z,8.53
2018-12-08T13:20:34.693Z,25.07
2018-12-08T13:23:02.538Z,15.70
2018-12-08T13:25:30.071Z,11.57
2018-12-08T13:27:57.907Z,7.73
2018-12-08T13:30:25.830Z,9.77
2018-12-08T13:32:53.393Z,12.27
2018-12-08T13:35:33.067Z,11.00
2018-12-08T13:38:00.816Z,7.23
2018-12-08T13:40:28.554Z,13.10
2018-12-08T13:42:56.183Z,9.53
2018-12-08T13:45:23.852Z,9.63
2018-12-08T13:47:51.891Z,11.90
2018-12-08T13:50:19.595Z,8.30
2018-12-08T13:52:47.400Z,7.63
2018-12-08T13:55:14.946Z,15.43
2018-12-08T13:57:43.767Z,17.73
2018-12-08T14:00:11.846Z,11.47
2018-12-08T14:02:39.675Z,13.10
2018-12-08T14:05:07.477Z,17.50
2018-12-08T14:07:35.307Z,10.93
2018-12-08T14:10:03.969Z,15.63
2018-12-08T14:12:31.631Z,12.50
2018-12-08T14:14:59.504Z,20.93
2018-12-08T14:17:27.040Z,15.47
2018-12-08T14:19:54.720Z,12.20
2018-12-08T14:22:22.395Z,15.77
2018-12-08T14:24:49.935Z,8.60
2018-12-08T14:27:17.765Z,9.63
2018-12-08T14:29:45.845Z,19.03
2018-12-08T14:32:13.503Z,19.07
2018-12-08T14:34:41.262Z,18.13
2018-12-08T14:37:09.665Z,15.17
2018-12-08T14:39:37.214Z,15.93
2018-12-08T14:42:04.783Z,18.33
2018-12-08T14:44:32.332Z,16.53
2018-12-08T14:46:59.865Z,7.53
2018-12-08T14:49:27.796Z,18.17
2018-12-08T14:51:55.784Z,13.80
2018-12-08T14:54:23.345Z,16.57
2018-12-08T14:56:50.951Z,15.20
2018-12-08T14:59:18.661Z,9.83
2018-12-08T15:01:46.839Z,15.00
2018-12-08T15:04:14.418Z,20.53
2018-12-08T15:06:41.962Z,21.67
2018-12-08T15:09:09.503Z,76.07
2018-12-08T15:11:37.086Z,26.23
2018-12-08T15:14:04.627Z,14.00
2018-12-08T15:16:32.517Z,12.30
2018-12-08T15:19:00.096Z,24.30
2018-12-08T15:21:27.794Z,12.60
2018-12-08T15:23:55.595Z,41.43
2018-12-08T15:26:23.295Z,26.73
2018-12-08T15:28:51.001Z,13.60
2018-12-08T15:31:18.549Z,13.97
2018-12-08T15:33:46.146Z,22.30
2018-12-08T15:36:13.918Z,36.53
2018-12-08T15:38:41.952Z,53.47
2018-12-08T15:41:09.525Z,39.90
2018-12-08T15:43:37.297Z,33.60
2018-12-08T15:46:05.143Z,26.53
2018-12-08T15:48:32.745Z,37.30
2018-12-08T15:51:00.320Z,33.80
2018-12-08T15:53:28.239Z,33.87
2018-12-08T15:55:58.117Z,32.13
2018-12-08T15:58:26.107Z,61.50
2018-12-08T16:00:53.972Z,37.83
2018-12-08T16:03:21.671Z,36.53
2018-12-08T16:05:49.677Z,32.60
2018-12-08T16:08:17.244Z,31.40
2018-12-08T16:10:44.835Z,39.07
2018-12-08T16:13:13.396Z,27.37
2018-12-08T16:15:40.999Z,25.00
2018-12-08T16:18:08.750Z,46.07
2018-12-08T16:20:36.541Z,48.60
2018-12-08T16:23:04.550Z,32.03
2018-12-08T16:25:32.151Z,26.70
2018-12-08T16:27:59.700Z,40.03
2018-12-08T16:30:27.262Z,64.23
2018-12-08T16:32:55.114Z,83.00
2018-12-08T16:35:22.757Z,49.70
2018-12-08T16:37:56.938Z,69.73
2018-12-08T16:40:20.159Z,46.60
2018-12-08T16:42:47.942Z,127.87
2018-12-08T16:45:15.629Z,93.83
2018-12-08T16:47:43.213Z,69.60
2018-12-08T16:50:11.111Z,60.17
2018-12-08T16:52:38.801Z,58.73
2018-12-08T16:55:06.665Z,39.00
2018-12-08T16:57:34.218Z,47.97
2018-12-08T17:00:02.129Z,59.67
2018-12-08T17:02:30.003Z,36.50
2018-12-08T17:04:57.564Z,27.03
2018-12-08T17:07:25.930Z,19.50
2018-12-08T17:09:54.056Z,12.87
2018-12-08T17:12:21.626Z,11.73
2018-12-08T17:14:49.528Z,12.67
2018-12-08T17:17:17.158Z,7.20
2018-12-08T17:19:44.703Z,7.80
2018-12-08T17:22:12.483Z,19.97
2018-12-08T17:24:40.376Z,7.37
2018-12-08T17:27:08.137Z,6.57
2018-12-08T17:29:35.971Z,11.00
2018-12-08T17:32:04.255Z,18.33
2018-12-08T17:34:32.070Z,11.30
2018-12-08T17:37:00.711Z,11.40
2018-12-08T17:39:29.098Z,8.20
2018-12-08T17:41:57.500Z,12.20
2018-12-08T17:44:26.322Z,25.23
2018-12-08T17:46:53.911Z,21.57
2018-12-08T17:49:21.780Z,19.40
2018-12-08T17:51:49.387Z,18.87
2018-12-08T17:54:17.552Z,27.40
2018-12-08T17:56:45.902Z,25.40
2018-12-08T17:59:13.771Z,29.77
2018-12-08T18:01:41.307Z,37.57
2018-12-08T18:04:08.917Z,51.70
2018-12-08T18:06:37.203Z,65.90
2018-12-08T18:09:06.123Z,71.97
2018-12-08T18:11:33.756Z,87.23
2018-12-08T18:14:02.735Z,84.13
2018-12-08T18:16:30.672Z,80.37
2018-12-08T18:18:58.229Z,25.43
2018-12-08T18:21:26.514Z,24.53
2018-12-08T18:23:54.068Z,11.03
2018-12-08T18:26:21.900Z,25.30
2018-12-08T18:28:49.491Z,22.70
2018-12-08T18:31:17.088Z,20.93
2018-12-08T18:33:44.671Z,8.03
2018-12-08T18:36:12.523Z,29.60
2018-12-08T18:38:40.423Z,23.80
2018-12-08T18:41:08.300Z,43.57
2018-12-08T18:43:36.137Z,29.30
2018-12-08T18:46:03.687Z,55.90
2018-12-08T18:48:31.467Z,35.77
2018-12-08T18:50:59.037Z,14.70
2018-12-08T18:53:26.798Z,18.03
2018-12-08T18:55:54.586Z,16.47
2018-12-08T18:58:22.361Z,9.17
2018-12-08T19:00:50.104Z,14.50
2018-12-08T19:03:17.841Z,27.70
2018-12-08T19:05:45.755Z,33.30
2018-12-08T19:08:13.474Z,72.27
2018-12-08T19:10:41.103Z,50.37
2018-12-08T19:13:09.182Z,40.13
2018-12-08T19:15:37.197Z,33.93
2018-12-08T19:18:04.753Z,22.67
2018-12-08T19:20:32.512Z,21.53
2018-12-08T19:23:00.481Z,34.70
2018-12-08T19:25:29.267Z,39.87
2018-12-08T19:27:56.827Z,29.57
2018-12-08T19:30:24.521Z,35.20
2018-12-08T19:32:52.608Z,24.07
2018-12-08T19:35:20.913Z,24.50
2018-12-08T19:37:48.662Z,12.13
2018-12-08T19:40:16.223Z,19.13
2018-12-08T19:42:44.367Z,23.97
2018-12-08T19:45:11.987Z,38.53
2018-12-08T19:47:40.268Z,15.07
2018-12-08T19:50:07.827Z,11.23
2018-12-08T19:52:35.776Z,11.07
2018-12-08T19:55:03.346Z,6.37
2018-12-08T19:57:32.544Z,15.00
2018-12-08T20:00:00.630Z,7.97
2018-12-08T20:02:28.801Z,8.37
2018-12-08T20:04:56.851Z,7.03
2018-12-08T20:07:24.828Z,8.53
2018-12-08T20:09:52.742Z,7.73
2018-12-08T20:12:20.557Z,11.00
2018-12-08T20:14:48.646Z,6.03
2018-12-08T20:17:16.494Z,6.40
2018-12-08T20:19:44.261Z,10.10
2018-12-08T20:22:12.095Z,8.60
2018-12-08T20:24:39.779Z,6.57
2018-12-08T20:27:07.322Z,5.40
2018-12-08T20:29:35.410Z,11.87
2018-12-08T20:32:03.156Z,12.50
2018-12-08T20:34:30.958Z,23.40
2018-12-08T20:36:58.862Z,11.60
2018-12-08T20:39:26.654Z,39.30
2018-12-08T20:41:54.195Z,19.13
2018-12-08T20:44:22.014Z,6.13
2018-12-08T20:46:49.774Z,44.70
2018-12-08T20:49:17.516Z,8.67
2018-12-08T20:51:45.382Z,8.53
2018-12-08T20:54:12.925Z,17.60
2018-12-08T20:56:42.475Z,15.60
2018-12-08T20:59:10.081Z,9.70
2018-12-08T21:01:37.782Z,15.10
2018-12-08T21:04:05.502Z,5.50
2018-12-08T21:06:33.391Z,19.10
2018-12-08T21:09:00.933Z,14.83
2018-12-08T21:11:28.649Z,6.50
2018-12-08T21:13:56.455Z,2.77
2018-12-08T21:16:24.035Z,12.53
2018-12-08T21:18:51.911Z,2.90
2018-12-08T21:21:20.686Z,3.50
2018-12-08T21:23:48.229Z,61.43
2018-12-08T21:26:15.794Z,16.10
2018-12-08T21:28:43.590Z,5.93
2018-12-08T21:31:11.278Z,9.00
2018-12-08T21:33:38.986Z,9.47
2018-12-08T21:36:06.740Z,11.47
2018-12-08T21:38:34.306Z,9.10
2018-12-08T21:41:01.843Z,5.57
2018-12-08T21:43:29.739Z,20.83
2018-12-08T21:45:57.395Z,9.00
2018-12-08T21:48:24.971Z,60.33
2018-12-08T21:50:52.580Z,14.90
2018-12-08T21:53:20.609Z,7.07
2018-12-08T21:55:48.214Z,12.57
2018-12-08T21:58:16.158Z,7.10
2018-12-08T22:00:44.079Z,12.37
2018-12-08T22:03:11.743Z,13.47
2018-12-08T22:05:39.736Z,32.90
2018-12-08T22:08:07.276Z,8.07
2018-12-08T22:10:34.824Z,11.43
2018-12-08T22:13:02.403Z,15.93
2018-12-08T22:15:30.350Z,6.00
2018-12-08T22:17:58.041Z,10.93
2018-12-08T22:20:25.912Z,6.90
2018-12-08T22:22:53.458Z,12.97
2018-12-08T22:25:21.075Z,18.90
2018-12-08T22:27:48.864Z,9.27
2018-12-08T22:30:16.399Z,14.87
2018-12-08T22:32:44.075Z,23.57
2018-12-08T22:35:11.879Z,6.03
2018-12-08T22:37:39.618Z,5.20
2018-12-08T22:40:07.522Z,32.47
2018-12-08T22:42:35.143Z,11.07
2018-12-08T22:45:03.008Z,17.57
2018-12-08T22:47:30.553Z,2.80
2018-12-08T22:49:58.175Z,2.77
2018-12-08T22:52:26.093Z,3.57
2018-12-08T22:54:53.653Z,5.27
2018-12-08T22:57:21.218Z,5.10
2018-12-08T22:59:48.963Z,60.70
2018-12-08T23:02:16.517Z,5.97
2018-12-08T23:04:44.091Z,8.10
2018-12-08T23:07:11.674Z,10.70
2018-12-08T23:09:39.214Z,19.57
2018-12-08T23:12:06.777Z,22.37
2018-12-08T23:14:34.318Z,34.83
2018-12-08T23:17:01.851Z,24.47
2018-12-08T23:19:29.760Z,46.47
2018-12-08T23:21:57.599Z,24.87
2018-12-08T23:24:25.302Z,35.87
2018-12-08T23:26:53.355Z,25.97
2018-12-08T23:29:20.890Z,24.83
2018-12-08T23:31:48.426Z,32.00
2018-12-08T23:34:15.999Z,15.63
2018-12-08T23:36:43.838Z,15.67
2018-12-08T23:39:11.522Z,12.53
2018-12-08T23:41:39.294Z,16.37
2018-12-08T23:44:07.139Z,15.00
2018-12-08T23:46:35.036Z,12.03
2018-12-08T23:49:10.936Z,12.90
2018-12-08T23:51:32.384Z,12.90
2018-12-08T23:53:59.922Z,10.60
2018-12-08T23:56:27.876Z,10.23
2018-12-08T23:58:55.819Z,8.23
